Time;durP1;ratioP1;P1;durP2;ratioP2;P2;SDS_P1;SDS_P2;PMS_P1;PMS_P2;Temp;Humidity;BMP_temperature;BMP_pressure;BME280_temperature;BME280_humidity;BME280_pressure;Samples;Min_cycle;Max_cycle;Signal;HPM_P1;HPM_P2
2023/07/22 00:02:34;;;;;;;6.88;5.72;;;19.70;99.90;;;;;;5078445;28;20242;-74
2023/07/22 00:05:25;;;;;;;6.95;6.25;;;19.70;99.90;;;;;;5066199;28;20235;-73
2023/07/22 00:08:15;;;;;;;6.63;5.53;;;19.70;99.90;;;;;;5080233;28;20224;-72
2023/07/22 00:11:04;;;;;;;7.70;5.55;;;19.70;99.90;;;;;;5056700;28;20220;-72
2023/07/22 00:13:53;;;;;;;7.78;6.85;;;19.70;99.90;;;;;;5073463;28;20223;-74
2023/07/22 00:16:42;;;;;;;6.32;5.72;;;19.70;99.90;;;;;;5075601;28;20224;-72
2023/07/22 00:19:31;;;;;;;7.25;6.28;;;19.70;99.90;;;;;;5069418;28;20302;-71
2023/07/22 00:22:20;;;;;;;7.65;6.10;;;19.70;99.90;;;;;;5076184;28;20259;-72
2023/07/22 00:25:13;;;;;;;7.60;6.45;;;19.80;99.90;;;;;;5054137;28;20235;-72
2023/07/22 00:28:01;;;;;;;9.23;6.70;;;19.60;99.90;;;;;;5063760;28;20302;-72
2023/07/22 00:34:17;;;;;;;9.00;6.28;;;19.60;99.90;;;;;;5076772;28;20649;-73
2023/07/22 00:37:06;;;;;;;8.90;6.90;;;19.50;99.90;;;;;;5069293;28;20216;-73
2023/07/22 00:39:57;;;;;;;7.20;6.50;;;19.60;99.90;;;;;;5060409;28;20248;-72
2023/07/22 00:42:47;;;;;;;7.10;6.32;;;19.60;99.90;;;;;;5061456;28;20679;-73
2023/07/22 00:45:36;;;;;;;7.50;6.70;;;19.60;99.90;;;;;;5067025;28;20216;-73
2023/07/22 00:48:25;;;;;;;8.90;6.93;;;19.60;99.90;;;;;;5073351;28;20259;-73
2023/07/22 00:51:14;;;;;;;7.20;6.50;;;19.60;99.90;;;;;;5076085;28;20642;-73
2023/07/22 00:54:04;;;;;;;8.30;6.80;;;19.60;99.90;;;;;;5067821;28;20603;-73
2023/07/22 00:56:54;;;;;;;7.40;6.55;;;19.50;99.90;;;;;;5077917;28;20493;-74
2023/07/22 00:59:45;;;;;;;7.80;7.00;;;19.60;99.90;;;;;;5054933;28;20223;-74
2023/07/22 01:02:34;;;;;;;7.63;6.93;;;19.50;99.90;;;;;;5061184;28;20282;-74
2023/07/22 01:05:24;;;;;;;7.22;6.53;;;19.50;99.90;;;;;;5072443;28;21068;-74
2023/07/22 01:08:13;;;;;;;9.50;6.82;;;19.60;99.90;;;;;;5074487;28;20357;-73
2023/07/22 01:11:03;;;;;;;7.93;7.15;;;19.50;99.90;;;;;;5052262;28;20220;-74
2023/07/22 01:13:57;;;;;;;8.43;6.75;;;19.50;99.90;;;;;;5065386;28;20717;-74
2023/07/22 01:16:48;;;;;;;9.82;6.88;;;19.40;99.90;;;;;;5074933;28;20330;-74
2023/07/22 01:19:37;;;;;;;7.65;6.85;;;19.50;99.90;;;;;;5072317;28;20364;-74
2023/07/22 01:22:26;;;;;;;7.88;7.18;;;19.50;99.90;;;;;;5062780;28;20231;-73
2023/07/22 01:25:16;;;;;;;10.05;7.18;;;19.50;99.90;;;;;;5067448;28;20301;-73
2023/07/22 01:28:10;;;;;;;7.65;6.85;;;19.50;99.90;;;;;;5058668;28;20223;-75
2023/07/22 01:31:00;;;;;;;7.95;6.97;;;19.50;99.90;;;;;;5060166;28;20303;-74
2023/07/22 01:33:49;;;;;;;9.73;7.22;;;19.50;99.90;;;;;;5076743;28;20224;-75
2023/07/22 01:36:39;;;;;;;8.63;7.10;;;19.40;99.90;;;;;;5069518;28;20677;-76
2023/07/22 01:39:28;;;;;;;8.15;7.03;;;19.30;99.90;;;;;;5073210;28;20216;-73
2023/07/22 01:42:18;;;;;;;9.05;7.32;;;19.30;99.90;;;;;;5064301;28;20234;-74
2023/07/22 01:45:09;;;;;;;9.48;8.02;;;19.30;99.90;;;;;;5073762;28;20219;-74
2023/07/22 01:47:58;;;;;;;9.82;7.63;;;19.30;99.90;;;;;;5078738;28;20215;-74
2023/07/22 01:50:47;;;;;;;9.63;7.68;;;19.30;99.90;;;;;;5063948;28;20226;-73
2023/07/22 01:53:36;;;;;;;8.20;7.15;;;19.30;99.90;;;;;;5074244;28;20638;-73
2023/07/22 01:56:25;;;;;;;8.13;7.32;;;19.20;99.90;;;;;;5069240;28;20331;-73
2023/07/22 01:59:16;;;;;;;8.40;7.55;;;19.10;99.90;;;;;;5064390;28;20227;-74
2023/07/22 02:02:06;;;;;;;9.60;7.70;;;19.20;99.90;;;;;;5073384;28;20219;-74
2023/07/22 02:04:57;;;;;;;12.68;8.18;;;19.20;99.90;;;;;;5064305;28;20228;-74
2023/07/22 02:07:46;;;;;;;9.68;7.78;;;19.20;99.90;;;;;;5076291;28;20266;-74
2023/07/22 02:10:35;;;;;;;8.07;7.32;;;19.20;99.90;;;;;;5072161;28;20551;-75
2023/07/22 02:13:24;;;;;;;8.98;7.40;;;19.10;99.90;;;;;;5056309;28;20259;-71
2023/07/22 02:16:14;;;;;;;10.00;7.85;;;19.10;99.90;;;;;;5070100;28;20695;-71
2023/07/22 02:19:04;;;;;;;13.23;8.02;;;19.10;99.90;;;;;;5075083;28;20323;-72
2023/07/22 02:22:00;;;;;;;10.65;8.60;;;19.10;99.90;;;;;;5073107;28;20572;-72
2023/07/22 02:24:50;;;;;;;11.10;8.20;;;19.10;99.90;;;;;;5058631;28;20263;-72
2023/07/22 02:27:40;;;;;;;9.02;7.82;;;19.10;99.90;;;;;;5069897;28;20231;-72
2023/07/22 02:30:34;;;;;;;9.40;8.18;;;19.10;99.90;;;;;;5054097;28;20250;-71
2023/07/22 02:33:24;;;;;;;13.60;8.82;;;19.00;99.90;;;;;;5076546;28;20280;-71
2023/07/22 02:36:14;;;;;;;11.73;8.98;;;19.10;99.90;;;;;;5073479;28;20247;-71
2023/07/22 02:39:03;;;;;;;12.05;8.85;;;19.00;99.90;;;;;;5076703;28;20442;-71
2023/07/22 02:41:52;;;;;;;10.02;8.98;;;19.00;99.90;;;;;;5062794;28;20353;-72
2023/07/22 02:44:41;;;;;;;10.77;9.20;;;19.10;99.90;;;;;;5074969;28;20219;-72
2023/07/22 02:47:30;;;;;;;12.55;8.75;;;19.10;99.90;;;;;;5061866;28;20578;-73
2023/07/22 02:50:20;;;;;;;10.45;9.35;;;19.10;99.90;;;;;;5062568;28;20945;-72
2023/07/22 02:53:10;;;;;;;11.10;8.88;;;19.00;99.90;;;;;;5068721;28;20220;-72
2023/07/22 02:55:58;;;;;;;10.45;9.00;;;19.00;99.90;;;;;;5072251;28;20239;-73
2023/07/22 02:58:47;;;;;;;10.07;8.63;;;19.00;99.90;;;;;;5064183;28;20249;-73
2023/07/22 03:01:36;;;;;;;11.63;9.35;;;19.00;99.90;;;;;;5077213;28;20223;-75
2023/07/22 03:04:26;;;;;;;10.15;9.15;;;19.00;99.90;;;;;;5066846;28;20219;-74
2023/07/22 03:07:17;;;;;;;13.13;10.02;;;19.00;99.90;;;;;;5064810;28;20341;-73
2023/07/22 03:10:07;;;;;;;13.23;9.68;;;19.00;99.90;;;;;;5076220;28;20323;-74
2023/07/22 03:12:57;;;;;;;10.00;9.00;;;18.90;99.90;;;;;;5073210;28;20924;-74
2023/07/22 03:15:45;;;;;;;11.68;9.68;;;18.90;99.90;;;;;;5077470;28;20227;-75
2023/07/22 03:18:34;;;;;;;11.82;10.45;;;18.90;99.90;;;;;;5065198;28;20247;-74
2023/07/22 03:21:23;;;;;;;13.00;9.68;;;18.90;99.90;;;;;;5060074;28;20235;-74
2023/07/22 03:24:14;;;;;;;11.65;10.52;;;18.90;99.90;;;;;;5064017;28;20312;-73
2023/07/22 03:27:03;;;;;;;11.73;10.13;;;18.90;99.90;;;;;;5062641;28;20232;-73
2023/07/22 03:29:52;;;;;;;15.02;10.27;;;18.90;99.90;;;;;;5065201;28;20304;-74
2023/07/22 03:32:42;;;;;;;12.52;9.75;;;19.00;99.90;;;;;;5084870;28;20215;-75
2023/07/22 03:35:31;;;;;;;11.43;10.23;;;19.10;99.90;;;;;;5084918;28;20246;-74
2023/07/22 03:38:19;;;;;;;12.00;10.48;;;19.00;99.90;;;;;;5077230;28;20235;-75
2023/07/22 03:41:10;;;;;;;11.68;10.48;;;19.10;99.90;;;;;;5072030;28;20216;-75
2023/07/22 03:43:59;;;;;;;13.07;10.65;;;19.10;99.90;;;;;;5077580;28;20227;-75
2023/07/22 03:46:49;;;;;;;13.32;11.02;;;19.00;99.90;;;;;;5062018;28;20226;-75
2023/07/22 03:49:38;;;;;;;12.30;11.10;;;19.00;99.90;;;;;;5088201;28;20223;-75
2023/07/22 03:52:26;;;;;;;13.02;10.00;;;19.00;99.90;;;;;;5076578;28;20302;-76
2023/07/22 03:55:15;;;;;;;19.65;17.15;;;19.10;99.90;;;;;;5075930;28;20223;-75
2023/07/22 03:58:06;;;;;;;13.38;11.98;;;19.20;99.90;;;;;;5082143;28;20242;-75
2023/07/22 04:00:57;;;;;;;10.88;9.23;;;19.30;99.90;;;;;;5081073;28;20224;-75
2023/07/22 04:03:46;;;;;;;13.85;10.50;;;19.20;99.90;;;;;;5061420;28;20795;-75
2023/07/22 04:06:35;;;;;;;10.90;9.88;;;19.20;99.90;;;;;;5084251;28;20223;-75
2023/07/22 04:09:24;;;;;;;11.05;9.95;;;19.20;99.90;;;;;;5075151;28;20223;-75
2023/07/22 04:12:13;;;;;;;10.73;9.73;;;19.20;99.90;;;;;;5072834;28;20338;-73
2023/07/22 04:15:05;;;;;;;13.90;11.25;;;19.30;99.90;;;;;;5083607;28;20254;-75
2023/07/22 04:17:53;;;;;;;13.90;10.10;;;19.40;99.90;;;;;;5082461;28;20544;-75
2023/07/22 04:20:42;;;;;;;11.25;10.10;;;19.50;99.90;;;;;;5078297;28;20230;-75
2023/07/22 04:23:33;;;;;;;10.05;8.52;;;19.60;99.90;;;;;;5078086;28;20246;-74
2023/07/22 04:26:22;;;;;;;9.70;8.70;;;19.60;99.90;;;;;;5064518;28;20297;-74
2023/07/22 04:29:12;;;;;;;10.73;8.82;;;19.70;99.90;;;;;;5063079;28;20277;-74
2023/07/22 04:32:03;;;;;;;10.63;8.73;;;19.60;99.90;;;;;;5076306;28;20598;-74
2023/07/22 04:34:52;;;;;;;9.30;8.40;;;19.60;99.90;;;;;;5069100;28;20235;-74
2023/07/22 04:37:41;;;;;;;13.38;9.15;;;19.60;99.90;;;;;;5066800;28;20230;-75
2023/07/22 04:40:31;;;;;;;9.55;8.52;;;19.70;99.90;;;;;;5074604;28;20230;-72
2023/07/22 04:43:20;;;;;;;9.30;8.25;;;19.60;99.90;;;;;;5080273;28;20246;-71
2023/07/22 04:46:10;;;;;;;9.40;8.48;;;19.60;99.90;;;;;;5079778;28;20227;-73
2023/07/22 04:49:01;;;;;;;13.02;8.25;;;19.60;99.90;;;;;;5080469;28;20231;-73
2023/07/22 04:51:51;;;;;;;9.80;8.43;;;19.70;99.90;;;;;;5080859;28;20225;-73
2023/07/22 04:54:40;;;;;;;10.95;8.85;;;19.70;99.90;;;;;;5075431;28;21159;-74
2023/07/22 04:57:29;;;;;;;10.75;8.00;;;19.70;99.90;;;;;;5078616;28;21105;-75
2023/07/22 05:00:18;;;;;;;10.15;7.72;;;19.70;99.90;;;;;;5072772;28;20227;-74
2023/07/22 05:03:07;;;;;;;9.35;8.45;;;19.70;99.90;;;;;;5075275;28;20560;-74
2023/07/22 05:05:58;;;;;;;10.90;8.07;;;19.70;99.90;;;;;;5060156;28;20224;-74
2023/07/22 05:08:47;;;;;;;8.45;7.60;;;19.60;99.90;;;;;;5076849;28;20239;-74
2023/07/22 05:11:36;;;;;;;9.00;7.63;;;19.50;99.90;;;;;;5078090;28;20586;-73
2023/07/22 05:14:25;;;;;;;11.82;8.25;;;19.60;99.90;;;;;;5068044;28;20223;-72
2023/07/22 05:17:14;;;;;;;7.68;6.70;;;19.60;99.90;;;;;;5078402;28;20231;-72
2023/07/22 05:20:03;;;;;;;8.35;7.00;;;19.50;99.90;;;;;;5075484;28;20220;-73
2023/07/22 05:22:53;;;;;;;10.02;7.18;;;19.50;99.90;;;;;;5061732;28;20763;-73
2023/07/22 05:25:42;;;;;;;8.75;7.70;;;19.40;99.90;;;;;;5075732;28;20231;-73
2023/07/22 05:28:31;;;;;;;8.27;7.47;;;19.40;99.90;;;;;;5070767;28;20231;-74
2023/07/22 05:31:20;;;;;;;9.30;7.65;;;19.60;99.90;;;;;;5067276;28;20297;-73
2023/07/22 05:34:09;;;;;;;11.20;8.15;;;19.60;99.90;;;;;;5070985;28;20215;-74
2023/07/22 05:36:58;;;;;;;10.05;8.10;;;19.60;99.90;;;;;;5057587;28;20751;-74
2023/07/22 05:39:49;;;;;;;12.00;8.98;;;19.50;99.90;;;;;;5082305;28;20223;-73
2023/07/22 05:42:38;;;;;;;9.82;8.45;;;19.60;99.90;;;;;;5070976;28;20368;-72
2023/07/22 05:45:27;;;;;;;9.23;7.57;;;19.60;99.90;;;;;;5075984;28;20219;-74
2023/07/22 05:48:15;;;;;;;8.80;7.97;;;19.60;99.90;;;;;;5078758;28;20220;-75
2023/07/22 05:51:05;;;;;;;10.70;8.13;;;19.60;99.90;;;;;;5075542;28;20803;-76
2023/07/22 05:53:53;;;;;;;8.57;7.68;;;19.70;99.90;;;;;;5074822;28;20334;-76
2023/07/22 05:56:43;;;;;;;11.20;7.90;;;19.80;99.90;;;;;;5076042;28;20281;-74
2023/07/22 05:59:32;;;;;;;11.70;8.60;;;19.80;99.90;;;;;;5072491;28;20216;-73
2023/07/22 06:02:21;;;;;;;8.65;7.75;;;20.00;99.90;;;;;;5076023;28;20223;-74
2023/07/22 06:05:11;;;;;;;8.57;7.68;;;20.00;99.90;;;;;;5071175;28;20227;-75
2023/07/22 06:07:59;;;;;;;11.27;7.53;;;20.20;99.90;;;;;;5077362;28;20291;-75
2023/07/22 06:10:48;;;;;;;8.85;7.13;;;20.20;99.90;;;;;;5066109;28;20609;-75
2023/07/22 06:13:38;;;;;;;8.38;7.38;;;20.40;99.90;;;;;;5065661;28;20238;-73
2023/07/22 06:16:27;;;;;;;9.13;6.80;;;20.60;99.90;;;;;;5068708;28;20228;-73
2023/07/22 06:19:17;;;;;;;8.20;7.25;;;20.50;99.90;;;;;;5062596;28;20219;-72
2023/07/22 06:22:06;;;;;;;7.53;6.38;;;20.60;99.90;;;;;;5074499;28;20239;-71
2023/07/22 06:24:56;;;;;;;7.70;6.97;;;20.60;99.90;;;;;;5063476;28;20706;-71
2023/07/22 06:27:45;;;;;;;8.88;7.03;;;20.60;99.90;;;;;;5075443;28;20226;-72
2023/07/22 06:30:36;;;;;;;11.02;7.43;;;20.50;99.90;;;;;;5071630;28;20236;-72
2023/07/22 06:33:24;;;;;;;9.48;7.22;;;20.60;99.90;;;;;;5062661;28;20216;-70
2023/07/22 06:36:13;;;;;;;9.02;7.00;;;20.60;99.90;;;;;;5067933;28;20552;-71
2023/07/22 06:39:03;;;;;;;8.00;7.20;;;20.70;99.90;;;;;;5081903;28;20787;-71
2023/07/22 06:41:52;;;;;;;7.28;6.60;;;20.70;99.90;;;;;;5062320;28;20264;-71
2023/07/22 06:44:41;;;;;;;10.25;6.90;;;20.70;99.90;;;;;;5072463;28;20366;-71
2023/07/22 06:47:31;;;;;;;6.72;6.00;;;20.90;99.90;;;;;;5071247;28;20217;-75
2023/07/22 06:50:21;;;;;;;6.88;5.68;;;21.40;99.90;;;;;;5061048;28;20761;-74
2023/07/22 06:53:11;;;;;;;5.43;4.93;;;21.50;99.90;;;;;;5059387;28;20231;-78
2023/07/22 06:56:00;;;;;;;5.22;4.50;;;21.40;99.90;;;;;;5077311;28;20393;-77
2023/07/22 06:58:50;;;;;;;5.50;4.55;;;21.30;99.90;;;;;;5075690;28;20231;-77
2023/07/22 07:01:39;;;;;;;4.85;4.35;;;21.30;99.90;;;;;;5075420;28;20307;-77
2023/07/22 07:04:29;;;;;;;5.57;4.25;;;21.30;99.90;;;;;;5059917;28;20219;-76
2023/07/22 07:07:18;;;;;;;4.70;4.20;;;21.40;99.90;;;;;;5081677;28;20223;-73
2023/07/22 07:10:11;;;;;;;4.80;3.90;;;21.40;99.90;;;;;;5066288;28;20232;-73
2023/07/22 07:13:00;;;;;;;5.07;3.88;;;21.30;99.90;;;;;;5073578;28;20750;-73
2023/07/22 07:15:49;;;;;;;4.75;4.25;;;21.30;99.90;;;;;;5056539;28;20278;-75
2023/07/22 07:18:38;;;;;;;6.88;3.80;;;21.40;99.90;;;;;;5082702;28;20396;-76
2023/07/22 07:21:29;;;;;;;5.88;3.80;;;21.60;99.90;;;;;;5075701;28;20223;-75
2023/07/22 07:24:18;;;;;;;4.25;3.80;;;21.70;99.90;;;;;;5061377;28;20227;-74
2023/07/22 07:27:08;;;;;;;6.25;3.78;;;22.00;99.90;;;;;;5069721;28;20228;-74
2023/07/22 07:29:57;;;;;;;6.55;3.50;;;22.30;99.90;;;;;;5075405;28;20486;-73
2023/07/22 07:32:45;;;;;;;3.85;3.45;;;22.30;99.90;;;;;;5076957;28;20243;-73
2023/07/22 07:35:34;;;;;;;3.88;3.20;;;22.60;99.90;;;;;;5080421;28;20681;-73
2023/07/22 07:38:24;;;;;;;4.90;3.30;;;22.50;99.90;;;;;;5067262;28;20231;-73
2023/07/22 07:41:14;;;;;;;3.90;3.20;;;23.20;99.90;;;;;;5082274;28;20219;-73
2023/07/22 07:44:03;;;;;;;5.68;3.17;;;23.70;99.90;;;;;;5083274;28;20219;-74
2023/07/22 07:46:52;;;;;;;5.60;3.17;;;24.10;99.90;;;;;;5081036;28;20215;-73
2023/07/22 07:49:41;;;;;;;4.28;3.00;;;24.60;99.90;;;;;;5075427;28;20277;-73
2023/07/22 07:52:30;;;;;;;5.28;3.22;;;25.00;99.90;;;;;;5076547;28;20223;-74
2023/07/22 07:55:20;;;;;;;4.25;3.08;;;25.20;99.90;;;;;;5077530;28;20746;-74
2023/07/22 07:58:12;;;;;;;3.80;3.20;;;25.10;99.90;;;;;;5084437;28;20828;-74
2023/07/22 08:01:01;;;;;;;8.98;2.92;;;24.50;99.90;;;;;;5068487;28;20685;-74
2023/07/22 08:03:50;;;;;;;4.68;2.35;;;24.80;99.90;;;;;;5067450;28;20231;-74
2023/07/22 08:06:39;;;;;;;7.00;2.70;;;25.40;99.90;;;;;;5062827;28;20675;-74
2023/07/22 08:09:28;;;;;;;4.53;2.25;;;26.00;99.90;;;;;;5077164;28;20224;-74
2023/07/22 08:12:18;;;;;;;3.08;2.50;;;26.30;99.90;;;;;;5072501;28;20474;-74
2023/07/22 08:15:08;;;;;;;6.28;2.45;;;26.20;99.90;;;;;;5058989;28;20256;-74
2023/07/22 08:17:57;;;;;;;5.63;2.22;;;26.50;99.90;;;;;;5076923;28;20254;-74
2023/07/22 08:20:47;;;;;;;3.92;2.90;;;27.00;99.90;;;;;;5063323;28;20223;-74
2023/07/22 08:23:37;;;;;;;4.28;2.72;;;26.80;99.90;;;;;;5074675;28;20239;-73
2023/07/22 08:26:26;;;;;;;5.00;2.38;;;26.90;99.90;;;;;;5071633;28;20219;-74
2023/07/22 08:29:19;;;;;;;3.45;2.35;;;27.40;99.90;;;;;;5076780;28;20250;-74
2023/07/22 08:32:09;;;;;;;4.80;2.78;;;27.80;99.90;;;;;;5066593;28;20658;-74
2023/07/22 08:34:58;;;;;;;4.93;2.75;;;27.90;99.90;;;;;;5065495;28;20655;-73
2023/07/22 08:37:48;;;;;;;4.13;2.47;;;28.40;99.60;;;;;;5079025;28;20230;-74
2023/07/22 08:40:38;;;;;;;4.25;2.30;;;28.00;99.90;;;;;;5068117;28;20235;-74
2023/07/22 08:43:29;;;;;;;2.72;2.15;;;28.30;96.20;;;;;;5072991;28;20231;-74
2023/07/22 08:46:21;;;;;;;4.65;2.13;;;28.40;96.70;;;;;;5074468;28;20841;-74
2023/07/22 08:49:11;;;;;;;2.35;1.92;;;28.50;95.40;;;;;;5079490;28;20357;-74
2023/07/22 08:52:01;;;;;;;3.17;2.30;;;28.70;94.90;;;;;;5065049;28;20223;-73
2023/07/22 08:54:50;;;;;;;4.80;2.40;;;29.00;93.80;;;;;;5074429;28;20761;-74
2023/07/22 08:57:40;;;;;;;3.17;2.70;;;29.20;93.50;;;;;;5080109;28;20227;-74
2023/07/22 09:00:32;;;;;;;4.38;3.28;;;29.50;92.00;;;;;;5070892;28;20319;-76
2023/07/22 09:03:23;;;;;;;4.78;2.40;;;29.60;92.00;;;;;;5072055;28;20223;-74
2023/07/22 09:06:12;;;;;;;4.20;2.60;;;29.50;94.30;;;;;;5077578;28;20263;-74
2023/07/22 09:09:03;;;;;;;3.45;2.45;;;29.60;94.40;;;;;;5066661;28;20220;-74
2023/07/22 09:11:54;;;;;;;4.53;2.50;;;30.00;92.90;;;;;;5059036;28;20227;-74
2023/07/22 09:14:44;;;;;;;2.78;2.20;;;29.50;90.70;;;;;;5071227;28;20230;-73
2023/07/22 09:17:33;;;;;;;3.55;2.05;;;30.00;90.00;;;;;;5070508;28;20236;-74
2023/07/22 09:20:24;;;;;;;5.00;2.38;;;30.30;91.10;;;;;;5070372;28;20218;-73
2023/07/22 09:23:14;;;;;;;2.38;2.15;;;30.60;91.50;;;;;;5076609;28;20222;-74
2023/07/22 09:26:13;;;;;;;6.63;2.40;;;30.80;87.70;;;;;;5081000;28;20297;-75
2023/07/22 09:29:01;;;;;;;4.13;2.42;;;30.50;92.30;;;;;;5074705;28;20224;-74
2023/07/22 09:31:51;;;;;;;4.13;2.22;;;30.80;91.00;;;;;;5054662;28;20337;-74
2023/07/22 09:34:55;;;;;;;2.67;2.42;;;31.50;90.70;;;;;;5077129;28;20246;-74
2023/07/22 09:37:46;;;;;;;4.20;2.30;;;31.50;90.20;;;;;;5077457;28;20230;-74
2023/07/22 09:40:35;;;;;;;3.60;2.50;;;31.90;87.20;;;;;;5076881;28;20241;-73
2023/07/22 09:43:24;;;;;;;5.90;2.50;;;31.50;88.90;;;;;;5077257;28;20783;-74
2023/07/22 09:46:13;;;;;;;3.30;2.40;;;31.50;87.50;;;;;;5066750;28;20261;-73
2023/07/22 09:49:14;;;;;;;3.08;2.17;;;31.50;86.30;;;;;;5060442;28;20842;-74
2023/07/22 09:52:12;;;;;;;4.93;2.20;;;31.40;83.00;;;;;;5077719;28;20331;-74
2023/07/22 09:55:02;;;;;;;3.00;2.20;;;31.20;78.60;;;;;;5079056;28;20661;-74
2023/07/22 09:57:55;;;;;;;2.67;1.90;;;32.30;81.90;;;;;;5065727;28;20234;-74
2023/07/22 10:00:48;;;;;;;3.75;2.08;;;33.40;81.10;;;;;;5072050;28;20212;-74
2023/07/22 10:03:39;;;;;;;2.45;1.88;;;34.40;77.20;;;;;;5064083;28;20252;-74
2023/07/22 10:06:29;;;;;;;3.88;2.00;;;35.40;72.70;;;;;;5073698;28;20593;-74
2023/07/22 10:09:20;;;;;;;2.58;1.75;;;35.10;67.50;;;;;;5067292;28;20746;-74
2023/07/22 10:12:11;;;;;;;3.33;1.80;;;34.00;71.00;;;;;;5068388;28;20358;-74
2023/07/22 10:15:02;;;;;;;2.25;2.03;;;31.90;74.50;;;;;;5076190;28;20593;-74
2023/07/22 10:17:51;;;;;;;5.63;2.00;;;32.20;75.10;;;;;;5073391;28;20735;-73
2023/07/22 10:20:41;;;;;;;3.13;1.88;;;32.40;71.40;;;;;;5065896;28;20222;-74
2023/07/22 10:23:32;;;;;;;3.75;1.58;;;33.40;70.80;;;;;;5062966;28;20229;-74
2023/07/22 10:26:21;;;;;;;2.08;1.70;;;34.70;69.90;;;;;;5075412;28;20277;-73
2023/07/22 10:29:34;;;;;;;3.70;3.10;;;36.60;63.90;;;;;;5072424;28;20219;-75
2023/07/22 10:32:23;;;;;;;2.75;1.70;;;37.40;65.40;;;;;;5060969;28;20575;-75
2023/07/22 10:35:18;;;;;;;1.58;1.48;;;38.60;60.60;;;;;;5070149;28;20259;-75
2023/07/22 10:38:11;;;;;;;3.15;1.65;;;39.20;58.80;;;;;;5076957;28;20223;-75
2023/07/22 10:41:00;;;;;;;2.67;1.60;;;39.90;57.80;;;;;;5075951;28;20219;-74
2023/07/22 10:43:56;;;;;;;1.95;1.20;;;38.40;56.70;;;;;;5074670;28;20222;-75
2023/07/22 10:46:58;;;;;;;2.88;1.50;;;39.60;59.00;;;;;;5082171;28;20227;-75
2023/07/22 10:49:49;;;;;;;1.55;1.42;;;37.30;56.50;;;;;;5079178;28;20222;-75
2023/07/22 10:52:43;;;;;;;2.95;1.50;;;35.20;61.70;;;;;;5079634;28;20222;-75
2023/07/22 10:55:32;;;;;;;4.13;1.60;;;33.30;60.20;;;;;;5074468;28;20888;-75
2023/07/22 10:58:21;;;;;;;3.45;1.80;;;31.50;65.80;;;;;;5075590;28;20242;-74
2023/07/22 11:01:25;;;;;;;3.55;1.60;;;34.20;61.60;;;;;;5073851;28;20246;-75
2023/07/22 11:04:30;;;;;;;6.18;1.55;;;37.10;59.30;;;;;;5075082;28;20230;-74
2023/07/22 11:07:43;;;;;;;4.63;1.50;;;39.10;59.70;;;;;;5071713;28;20219;-74
2023/07/22 11:10:32;;;;;;;2.88;1.45;;;40.40;53.90;;;;;;5074028;28;20219;-74
2023/07/22 11:13:29;;;;;;;1.48;1.38;;;41.10;52.90;;;;;;5078851;28;20349;-75
2023/07/22 11:16:18;;;;;;;3.47;1.63;;;41.90;54.20;;;;;;5068428;28;20934;-76
2023/07/22 11:19:08;;;;;;;2.47;1.50;;;42.20;50.70;;;;;;5068035;28;20231;-75
2023/07/22 11:21:58;;;;;;;2.17;1.55;;;42.40;49.10;;;;;;5074299;28;20228;-75
2023/07/22 11:24:47;;;;;;;2.63;1.45;;;38.60;53.30;;;;;;5064666;28;20314;-76
2023/07/22 11:27:36;;;;;;;1.70;1.30;;;37.30;53.60;;;;;;5062219;28;20718;-75
2023/07/22 11:30:25;;;;;;;1.83;1.48;;;36.50;53.20;;;;;;5064863;28;20398;-75
2023/07/22 11:33:14;;;;;;;2.95;1.40;;;39.20;55.70;;;;;;5072775;28;20227;-75
2023/07/22 11:36:04;;;;;;;3.22;1.80;;;40.90;51.40;;;;;;5068813;28;20310;-75
2023/07/22 11:38:55;;;;;;;2.22;1.67;;;42.40;51.10;;;;;;5072775;28;20234;-76
2023/07/22 11:41:45;;;;;;;2.83;2.47;;;43.70;50.90;;;;;;5062505;28;20215;-75
2023/07/22 11:44:34;;;;;;;2.58;1.90;;;44.10;49.00;;;;;;5075080;28;20242;-75
2023/07/22 11:47:38;;;;;;;3.50;2.10;;;45.10;47.50;;;;;;5079772;28;20238;-75
2023/07/22 11:50:33;;;;;;;5.05;1.98;;;44.90;46.40;;;;;;5058730;28;21121;-75
2023/07/22 11:53:25;;;;;;;2.75;1.67;;;46.20;44.80;;;;;;5073228;28;20254;-75
2023/07/22 11:56:19;;;;;;;1.75;1.48;;;43.90;44.50;;;;;;5058946;28;20234;-75
2023/07/22 11:59:11;;;;;;;4.25;2.45;;;39.50;47.90;;;;;;5059127;28;20227;-75
2023/07/22 12:02:01;;;;;;;4.40;3.47;;;36.20;51.00;;;;;;5076449;28;20764;-75
2023/07/22 12:04:55;;;;;;;5.78;1.95;;;33.80;55.00;;;;;;5071850;28;20235;-75
2023/07/22 12:07:43;;;;;;;3.10;1.90;;;32.60;59.00;;;;;;5072971;28;20313;-75
2023/07/22 12:10:32;;;;;;;1.88;1.70;;;38.00;53.10;;;;;;5076811;28;20334;-75
2023/07/22 12:13:22;;;;;;;2.55;1.73;;;40.80;51.10;;;;;;5077179;28;20314;-75
2023/07/22 12:16:11;;;;;;;3.35;1.70;;;43.40;48.30;;;;;;5077806;28;20314;-74
2023/07/22 12:19:06;;;;;;;5.65;2.47;;;44.40;46.30;;;;;;5071844;28;20227;-75
2023/07/22 12:21:55;;;;;;;2.40;1.98;;;44.80;45.30;;;;;;5060713;28;20219;-75
2023/07/22 12:24:44;;;;;;;2.13;1.60;;;45.30;45.00;;;;;;5075365;28;20226;-75
2023/07/22 12:27:33;;;;;;;1.98;1.45;;;44.60;42.60;;;;;;5069239;28;20742;-75
2023/07/22 12:30:24;;;;;;;2.10;1.70;;;40.70;44.70;;;;;;5073393;28;20235;-74
2023/07/22 12:33:13;;;;;;;3.03;1.80;;;39.10;46.50;;;;;;5083021;28;20341;-75
2023/07/22 12:36:01;;;;;;;3.10;2.10;;;35.60;50.40;;;;;;5053476;28;20298;-75
2023/07/22 12:38:50;;;;;;;3.83;1.67;;;33.50;53.80;;;;;;5075956;28;20223;-74
2023/07/22 12:41:39;;;;;;;2.20;2.00;;;31.90;56.10;;;;;;5080135;28;20338;-74
2023/07/22 12:44:28;;;;;;;4.65;1.80;;;31.30;57.30;;;;;;5080314;28;20215;-74
2023/07/22 12:47:18;;;;;;;1.90;1.75;;;31.10;57.80;;;;;;5073588;28;20230;-74
2023/07/22 12:50:10;;;;;;;3.85;1.98;;;34.60;56.90;;;;;;5074398;28;20223;-74
2023/07/22 12:53:00;;;;;;;4.70;2.10;;;34.10;53.10;;;;;;5078320;28;20554;-80
2023/07/22 12:55:48;;;;;;;2.95;1.67;;;32.00;55.80;;;;;;5063738;28;20261;-74
2023/07/22 12:58:37;;;;;;;6.45;2.55;;;30.80;56.80;;;;;;5058685;28;20230;-75
2023/07/22 13:01:26;;;;;;;5.75;2.22;;;30.10;57.90;;;;;;5077286;28;20230;-83
2023/07/22 13:04:17;;;;;;;3.67;3.13;;;29.90;58.80;;;;;;5060003;28;20218;-74
2023/07/22 13:07:09;;;;;;;4.28;2.90;;;29.60;60.60;;;;;;5074143;28;20249;-78
2023/07/22 13:10:00;;;;;;;7.00;2.72;;;29.00;58.80;;;;;;5065709;28;20233;-75
2023/07/22 13:12:52;;;;;;;4.53;3.22;;;28.60;59.50;;;;;;5071780;28;20219;-74
2023/07/22 13:15:41;;;;;;;2.30;2.10;;;28.40;61.40;;;;;;5054851;28;20222;-74
2023/07/22 13:18:30;;;;;;;4.10;2.03;;;28.10;60.80;;;;;;5069581;28;20234;-75
2023/07/22 13:21:23;;;;;;;3.10;2.20;;;28.10;61.80;;;;;;5057818;28;20225;-75
2023/07/22 13:24:11;;;;;;;5.93;2.35;;;28.10;62.20;;;;;;5067463;28;20227;-74
2023/07/22 13:27:00;;;;;;;3.53;1.98;;;27.90;61.90;;;;;;5076108;28;20966;-72
2023/07/22 13:29:49;;;;;;;6.00;2.38;;;27.80;60.10;;;;;;5074691;28;20329;-71
2023/07/22 13:32:38;;;;;;;2.70;2.28;;;27.60;62.70;;;;;;5074222;28;20230;-74
2023/07/22 13:35:28;;;;;;;4.90;2.00;;;27.70;62.50;;;;;;5059871;28;20236;-73
2023/07/22 13:38:18;;;;;;;5.53;2.25;;;27.50;62.60;;;;;;5066178;28;20317;-71
2023/07/22 13:41:07;;;;;;;2.40;2.20;;;27.40;64.80;;;;;;5072973;28;20232;-72
2023/07/22 13:43:56;;;;;;;3.40;2.90;;;27.30;63.60;;;;;;5062045;28;20860;-71
2023/07/22 13:46:45;;;;;;;3.35;3.00;;;27.30;63.20;;;;;;5071534;28;20728;-71
2023/07/22 13:49:34;;;;;;;4.95;3.00;;;27.10;64.20;;;;;;5066535;28;20597;-71
2023/07/22 13:52:23;;;;;;;3.22;2.00;;;27.00;64.20;;;;;;5078701;28;20216;-71
2023/07/22 13:55:17;;;;;;;3.38;2.10;;;26.80;63.70;;;;;;5076678;28;20235;-71
2023/07/22 13:58:05;;;;;;;3.47;2.10;;;26.80;65.10;;;;;;5072046;28;21498;-71
2023/07/22 14:00:55;;;;;;;3.40;2.78;;;26.80;64.60;;;;;;5075383;28;20245;-72
2023/07/22 14:03:44;;;;;;;7.53;4.60;;;26.70;64.00;;;;;;5074872;28;20230;-70
2023/07/22 14:06:33;;;;;;;3.03;2.80;;;26.60;66.10;;;;;;5074213;28;20638;-70
2023/07/22 14:09:22;;;;;;;3.72;3.20;;;26.70;63.80;;;;;;5072059;28;20610;-71
2023/07/22 14:12:12;;;;;;;4.10;3.10;;;26.70;63.10;;;;;;5076186;28;20235;-71
2023/07/22 14:15:01;;;;;;;4.15;3.75;;;26.40;64.00;;;;;;5057148;28;20245;-72
2023/07/22 14:17:50;;;;;;;3.63;3.17;;;26.40;65.80;;;;;;5072916;28;20263;-71
2023/07/22 14:20:39;;;;;;;3.55;2.20;;;26.50;64.60;;;;;;5074634;28;20265;-71
2023/07/22 14:23:28;;;;;;;3.83;2.40;;;26.60;65.00;;;;;;5077081;28;20737;-71
2023/07/22 14:26:16;;;;;;;3.83;2.65;;;26.60;64.00;;;;;;5059150;28;20211;-71
2023/07/22 14:29:07;;;;;;;2.75;2.55;;;26.50;64.80;;;;;;5076781;28;20215;-72
2023/07/22 14:31:57;;;;;;;2.90;2.10;;;26.60;65.60;;;;;;5071657;28;20277;-71
2023/07/22 14:34:46;;;;;;;4.20;2.30;;;26.30;67.20;;;;;;5081548;28;20697;-70
2023/07/22 14:37:36;;;;;;;7.88;2.20;;;26.30;66.20;;;;;;5067160;28;20845;-71
2023/07/22 14:40:26;;;;;;;2.53;2.33;;;26.20;62.50;;;;;;5062951;28;20227;-70
2023/07/22 14:43:15;;;;;;;4.53;2.40;;;26.10;64.00;;;;;;5065705;28;20275;-71
2023/07/22 14:46:05;;;;;;;2.47;2.10;;;25.90;63.50;;;;;;5073703;28;20337;-70